Al Diriyah — HZAD — position and weather

sailwx.info

Track history (hours):
 
Tides and Currents Weather Stations Pressure Air Temp Water Temp Dewpoint Dewpoint Depression Visibility Wind Speed Wind Dir Waves Ship Positions

Al Diriyah

Last reported at 2014-Aug-01 01:15 UTC. Time now 2014-Aug-01 03:55 UTC.
Position N 39°06' E 001°30'.

Length 80 m; draft 5 m.

Type: Pleasure craft. MMSI: 403005000.

Date/timePositionNaut miles runAvg speedWind from/ knotsBaromVisibWave heightAir tempDewpointWater temp
2014-Aug-01 01:15N 39°06' E 001°30'0 0.0
2014-Aug-01 00:30N 39°06' E 001°30'0 0.0
2014-Jul-31 23:31N 39°06' E 001°30'0 0.0
2014-Jul-31 21:24N 39°06' E 001°30'0 0.0
2014-Jul-31 20:15N 39°06' E 001°30'0 0.0
2014-Jul-31 18:14N 39°06' E 001°30'0 0.0
2014-Jul-31 17:04N 39°06' E 001°30'0 0.0
2014-Jul-31 16:27N 39°06' E 001°30'0 0.0
2014-Jul-31 15:04N 39°06' E 001°30'0 0.0
2014-Jul-31 14:31N 39°06' E 001°30'9 8.8
2014-Jul-31 13:32N 39°02' E 001°39'5 0.6
2014-Jul-31 06:03N 38°59' E 001°34'0 0.0
2014-Jul-31 05:28N 38°59' E 001°34'0 0.0
2014-Jul-31 01:19N 38°59' E 001°34'0 0.0
2014-Jul-30 11:25N 38°59' E 001°34'0 0.0
2014-Jul-29 23:06N 38°59' E 001°34'0 0.0
2014-Jul-29 16:29N 38°59' E 001°34'0 0.0
2014-Jul-29 15:23N 38°59' E 001°34'0 0.0
2014-Jul-29 14:30N 38°59' E 001°34'0 0.0
2014-Jul-29 13:31N 38°59' E 001°34'0 0.0
2014-Jul-29 12:31N 38°59' E 001°34'0 0.0
2014-Jul-29 10:21N 38°59' E 001°34'0 0.0
2014-Jul-29 09:33N 38°59' E 001°34'0 0.0
2014-Jul-29 07:29N 38°59' E 001°34'0 0.0
2014-Jul-29 06:29N 38°59' E 001°34'0 0.0
2014-Jul-29 01:27N 38°59' E 001°34'0 0.0
2014-Jul-29 00:30N 38°59' E 001°34'0 0.0
2014-Jul-28 22:11N 38°59' E 001°34'0 0.0
2014-Jul-28 10:31N 38°59' E 001°34'6 5.9
2014-Jul-28 09:33N 38°55' E 001°29'3 0.1
2014-Jul-26 13:29N 38°54' E 001°26'0 0.0
2014-Jul-26 11:07N 38°54' E 001°26'0 0.0
2014-Jul-26 10:06N 38°54' E 001°26'0 0.0
2014-Jul-26 06:32N 38°54' E 001°26'0 0.0
2014-Jul-25 17:29N 38°54' E 001°26'0 0.0
2014-Jul-25 16:30N 38°54' E 001°26'0 0.0
2014-Jul-25 10:04N 38°54' E 001°26'0 0.0
2014-Jul-25 09:29N 38°54' E 001°26'0 0.0
2014-Jul-25 05:13N 38°54' E 001°26'0 0.0
2014-Jul-23 17:26N 38°54' E 001°26'0 0.0
2014-Jul-22 07:31N 38°54' E 001°26'0 0.0
2014-Jul-22 06:11N 38°54' E 001°26'0 0.0
2014-Jul-22 02:21N 38°54' E 001°26'  
Track history (hours):
 
Tides and Currents Weather Stations Pressure Air Temp Water Temp Dewpoint Dewpoint Depression Visibility Wind Speed Wind Dir Waves Ship Positions

Al Diriyah

Last reported at 2014-Aug-01 01:15 UTC. Time now 2014-Aug-01 03:55 UTC.
Position N 39°06' E 001°30'.

Length 80 m; draft 5 m.

Type: Pleasure craft. MMSI: 403005000.

Date/timePositionNaut miles runAvg speedWind from/ knotsBaromVisibWave heightAir tempDewpointWater temp
2014-Aug-01 01:15N 39°06' E 001°30'0 0.0
2014-Aug-01 00:30N 39°06' E 001°30'0 0.0
2014-Jul-31 23:31N 39°06' E 001°30'0 0.0
2014-Jul-31 21:24N 39°06' E 001°30'0 0.0
2014-Jul-31 20:15N 39°06' E 001°30'0 0.0
2014-Jul-31 18:14N 39°06' E 001°30'0 0.0
2014-Jul-31 17:04N 39°06' E 001°30'0 0.0
2014-Jul-31 16:27N 39°06' E 001°30'0 0.0
2014-Jul-31 15:04N 39°06' E 001°30'0 0.0
2014-Jul-31 14:31N 39°06' E 001°30'9 8.8
2014-Jul-31 13:32N 39°02' E 001°39'5 0.6
2014-Jul-31 06:03N 38°59' E 001°34'0 0.0
2014-Jul-31 05:28N 38°59' E 001°34'0 0.0
2014-Jul-31 01:19N 38°59' E 001°34'0 0.0
2014-Jul-30 11:25N 38°59' E 001°34'0 0.0
2014-Jul-29 23:06N 38°59' E 001°34'0 0.0
2014-Jul-29 16:29N 38°59' E 001°34'0 0.0
2014-Jul-29 15:23N 38°59' E 001°34'0 0.0
2014-Jul-29 14:30N 38°59' E 001°34'0 0.0
2014-Jul-29 13:31N 38°59' E 001°34'0 0.0
2014-Jul-29 12:31N 38°59' E 001°34'0 0.0
2014-Jul-29 10:21N 38°59' E 001°34'0 0.0
2014-Jul-29 09:33N 38°59' E 001°34'0 0.0
2014-Jul-29 07:29N 38°59' E 001°34'0 0.0
2014-Jul-29 06:29N 38°59' E 001°34'0 0.0
2014-Jul-29 01:27N 38°59' E 001°34'0 0.0
2014-Jul-29 00:30N 38°59' E 001°34'0 0.0
2014-Jul-28 22:11N 38°59' E 001°34'0 0.0
2014-Jul-28 10:31N 38°59' E 001°34'6 5.9
2014-Jul-28 09:33N 38°55' E 001°29'3 0.1
2014-Jul-26 13:29N 38°54' E 001°26'0 0.0
2014-Jul-26 11:07N 38°54' E 001°26'0 0.0
2014-Jul-26 10:06N 38°54' E 001°26'0 0.0
2014-Jul-26 06:32N 38°54' E 001°26'0 0.0
2014-Jul-25 17:29N 38°54' E 001°26'0 0.0
2014-Jul-25 16:30N 38°54' E 001°26'0 0.0
2014-Jul-25 10:04N 38°54' E 001°26'0 0.0
2014-Jul-25 09:29N 38°54' E 001°26'0 0.0
2014-Jul-25 05:13N 38°54' E 001°26'0 0.0
2014-Jul-23 17:26N 38°54' E 001°26'0 0.0
2014-Jul-22 07:31N 38°54' E 001°26'0 0.0
2014-Jul-22 06:11N 38°54' E 001°26'0 0.0
2014-Jul-22 02:21N 38°54' E 001°26'  

Dump ship's entire track history